Ames, Kansas
Current Conditions -  °F | °C
As of 6:37 PM on Friday 21 Nov 2014 (Local Time) from KCNK Reporting Station
Haze Haze  
Wind Chill: -1°   Ceiling: 200
Heat Index:   Visibility: 1.5mi
Dew Point:   Wind: 6mph
Humidity: 100%   Direction: 120°ESE
Pressure: 30.02"   Gusts: NA
Location:  39.4716°N, 97.7305°W
Report Text: KCNK 220037Z AUTO 12005KT 1 1/2SM BR OVC002 02/02 A3002 RMK AO2 T00170017
Loading
Personal Weather Stations






























Interactive Weather Map New forecast layout! Learn more

10-Day Weather Forecast

Advertisements
Track Severe Weather on mobile